sensor_id;sensor_type;location;lat;lon;timestamp;temperature;humidity
40287;DHT22;25998;46.604;13.610;2022-07-21T00:00:16;22.20;92.90
40287;DHT22;25998;46.604;13.610;2022-07-21T00:03:29;22.10;92.80
40287;DHT22;25998;46.604;13.610;2022-07-21T00:06:41;22.20;92.80
40287;DHT22;25998;46.604;13.610;2022-07-21T00:09:52;22.30;92.70
40287;DHT22;25998;46.604;13.610;2022-07-21T00:13:04;22.40;92.50
40287;DHT22;25998;46.604;13.610;2022-07-21T00:16:15;22.50;92.20
40287;DHT22;25998;46.604;13.610;2022-07-21T00:19:26;22.50;92.80
40287;DHT22;25998;46.604;13.610;2022-07-21T00:22:37;22.60;91.70
40287;DHT22;25998;46.604;13.610;2022-07-21T00:25:49;22.50;92.70
40287;DHT22;25998;46.604;13.610;2022-07-21T00:29:00;22.60;92.60
40287;DHT22;25998;46.604;13.610;2022-07-21T00:32:11;22.40;92.20
40287;DHT22;25998;46.604;13.610;2022-07-21T00:35:22;22.50;92.70
40287;DHT22;25998;46.604;13.610;2022-07-21T00:38:32;22.30;93.00
40287;DHT22;25998;46.604;13.610;2022-07-21T00:41:43;22.20;93.20
40287;DHT22;25998;46.604;13.610;2022-07-21T00:44:55;22.10;93.20
40287;DHT22;25998;46.604;13.610;2022-07-21T00:48:07;22.20;93.10
40287;DHT22;25998;46.604;13.610;2022-07-21T00:51:18;22.10;93.20
40287;DHT22;25998;46.604;13.610;2022-07-21T00:54:28;21.90;93.40
40287;DHT22;25998;46.604;13.610;2022-07-21T00:57:40;22.00;93.90
40287;DHT22;25998;46.604;13.610;2022-07-21T01:00:51;22.10;93.40
40287;DHT22;25998;46.604;13.610;2022-07-21T01:04:02;22.20;93.60
40287;DHT22;25998;46.604;13.610;2022-07-21T01:07:13;22.30;93.40
40287;DHT22;25998;46.604;13.610;2022-07-21T01:10:25;22.30;93.30
40287;DHT22;25998;46.604;13.610;2022-07-21T01:13:36;22.20;93.60
40287;DHT22;25998;46.604;13.610;2022-07-21T01:16:52;22.20;93.30
40287;DHT22;25998;46.604;13.610;2022-07-21T01:20:09;22.20;93.40
40287;DHT22;25998;46.604;13.610;2022-07-21T01:23:21;22.20;93.40
40287;DHT22;25998;46.604;13.610;2022-07-21T01:26:44;22.20;93.30
40287;DHT22;25998;46.604;13.610;2022-07-21T01:29:56;21.90;93.50
40287;DHT22;25998;46.604;13.610;2022-07-21T01:33:07;21.80;93.10
40287;DHT22;25998;46.604;13.610;2022-07-21T01:36:18;21.60;93.90
40287;DHT22;25998;46.604;13.610;2022-07-21T01:39:28;21.40;93.80
40287;DHT22;25998;46.604;13.610;2022-07-21T01:42:58;21.40;94.10
40287;DHT22;25998;46.604;13.610;2022-07-21T01:46:11;21.30;94.10
40287;DHT22;25998;46.604;13.610;2022-07-21T01:49:23;21.20;94.30
40287;DHT22;25998;46.604;13.610;2022-07-21T01:52:34;21.00;95.00
40287;DHT22;25998;46.604;13.610;2022-07-21T01:55:45;20.80;95.30
40287;DHT22;25998;46.604;13.610;2022-07-21T01:58:57;20.80;95.40
40287;DHT22;25998;46.604;13.610;2022-07-21T02:02:08;20.90;94.80
40287;DHT22;25998;46.604;13.610;2022-07-21T02:05:19;20.90;94.60
40287;DHT22;25998;46.604;13.610;2022-07-21T02:08:31;20.80;94.70
40287;DHT22;25998;46.604;13.610;2022-07-21T02:11:42;20.80;95.20
40287;DHT22;25998;46.604;13.610;2022-07-21T02:14:54;20.80;94.80
40287;DHT22;25998;46.604;13.610;2022-07-21T02:18:05;21.00;94.30
40287;DHT22;25998;46.604;13.610;2022-07-21T02:21:16;21.00;94.20
40287;DHT22;25998;46.604;13.610;2022-07-21T02:24:27;20.80;94.70
40287;DHT22;25998;46.604;13.610;2022-07-21T02:27:38;20.80;95.20
40287;DHT22;25998;46.604;13.610;2022-07-21T02:30:49;20.80;95.10
40287;DHT22;25998;46.604;13.610;2022-07-21T02:34:00;21.00;94.30
40287;DHT22;25998;46.604;13.610;2022-07-21T02:37:11;21.20;94.60
40287;DHT22;25998;46.604;13.610;2022-07-21T02:40:22;21.20;94.50
40287;DHT22;25998;46.604;13.610;2022-07-21T02:43:32;21.20;94.30
40287;DHT22;25998;46.604;13.610;2022-07-21T02:46:43;21.20;94.40
40287;DHT22;25998;46.604;13.610;2022-07-21T02:49:54;20.90;94.50
40287;DHT22;25998;46.604;13.610;2022-07-21T02:53:11;20.70;95.10
40287;DHT22;25998;46.604;13.610;2022-07-21T02:56:22;20.70;95.30
40287;DHT22;25998;46.604;13.610;2022-07-21T02:59:33;20.50;95.80
40287;DHT22;25998;46.604;13.610;2022-07-21T03:02:44;20.50;95.40
40287;DHT22;25998;46.604;13.610;2022-07-21T03:05:55;20.50;95.70
40287;DHT22;25998;46.604;13.610;2022-07-21T03:09:06;20.70;95.30
40287;DHT22;25998;46.604;13.610;2022-07-21T03:12:17;20.50;95.50
40287;DHT22;25998;46.604;13.610;2022-07-21T03:15:28;20.30;95.70
40287;DHT22;25998;46.604;13.610;2022-07-21T03:18:39;20.30;95.80
40287;DHT22;25998;46.604;13.610;2022-07-21T03:21:51;20.30;95.90
40287;DHT22;25998;46.604;13.610;2022-07-21T03:25:03;20.50;95.70
40287;DHT22;25998;46.604;13.610;2022-07-21T03:28:14;20.70;95.30
40287;DHT22;25998;46.604;13.610;2022-07-21T03:31:25;20.80;94.80
40287;DHT22;25998;46.604;13.610;2022-07-21T03:34:36;20.60;95.10
40287;DHT22;25998;46.604;13.610;2022-07-21T03:37:54;20.30;95.70
40287;DHT22;25998;46.604;13.610;2022-07-21T03:41:05;20.30;95.90
40287;DHT22;25998;46.604;13.610;2022-07-21T03:44:16;20.10;96.20
40287;DHT22;25998;46.604;13.610;2022-07-21T03:47:26;20.00;96.10
40287;DHT22;25998;46.604;13.610;2022-07-21T03:50:39;19.90;96.30
40287;DHT22;25998;46.604;13.610;2022-07-21T03:53:51;20.00;96.20
40287;DHT22;25998;46.604;13.610;2022-07-21T03:57:01;20.20;96.00
40287;DHT22;25998;46.604;13.610;2022-07-21T04:00:19;20.30;95.80
40287;DHT22;25998;46.604;13.610;2022-07-21T04:03:30;20.30;96.20
40287;DHT22;25998;46.604;13.610;2022-07-21T04:06:44;20.30;96.10
40287;DHT22;25998;46.604;13.610;2022-07-21T04:09:55;20.30;96.20
40287;DHT22;25998;46.604;13.610;2022-07-21T04:13:09;20.40;95.90
40287;DHT22;25998;46.604;13.610;2022-07-21T04:16:20;20.40;96.50
40287;DHT22;25998;46.604;13.610;2022-07-21T04:19:31;20.50;95.70
40287;DHT22;25998;46.604;13.610;2022-07-21T04:22:43;20.50;95.70
40287;DHT22;25998;46.604;13.610;2022-07-21T04:25:55;20.50;96.10
40287;DHT22;25998;46.604;13.610;2022-07-21T04:29:06;20.50;96.30
40287;DHT22;25998;46.604;13.610;2022-07-21T04:32:18;20.50;96.20
40287;DHT22;25998;46.604;13.610;2022-07-21T04:35:29;20.50;95.90
40287;DHT22;25998;46.604;13.610;2022-07-21T04:38:40;20.60;96.00
40287;DHT22;25998;46.604;13.610;2022-07-21T04:41:51;20.80;95.80
40287;DHT22;25998;46.604;13.610;2022-07-21T04:45:03;20.80;96.20
40287;DHT22;25998;46.604;13.610;2022-07-21T04:48:14;20.90;96.40
40287;DHT22;25998;46.604;13.610;2022-07-21T04:51:25;21.00;97.00
40287;DHT22;25998;46.604;13.610;2022-07-21T04:54:36;21.10;96.80
40287;DHT22;25998;46.604;13.610;2022-07-21T04:57:49;20.90;96.80
40287;DHT22;25998;46.604;13.610;2022-07-21T05:01:00;20.80;97.10
40287;DHT22;25998;46.604;13.610;2022-07-21T05:04:11;20.80;97.20
40287;DHT22;25998;46.604;13.610;2022-07-21T05:07:22;20.80;97.20
40287;DHT22;25998;46.604;13.610;2022-07-21T05:10:33;20.90;97.20
40287;DHT22;25998;46.604;13.610;2022-07-21T05:13:44;20.80;97.50
40287;DHT22;25998;46.604;13.610;2022-07-21T05:16:55;20.80;97.40
40287;DHT22;25998;46.604;13.610;2022-07-21T05:20:06;20.80;97.30
40287;DHT22;25998;46.604;13.610;2022-07-21T05:23:17;20.70;97.20
40287;DHT22;25998;46.604;13.610;2022-07-21T05:26:28;20.70;97.30
40287;DHT22;25998;46.604;13.610;2022-07-21T05:29:39;20.90;98.00
40287;DHT22;25998;46.604;13.610;2022-07-21T05:32:50;21.10;97.20
40287;DHT22;25998;46.604;13.610;2022-07-21T05:36:01;21.40;97.40
40287;DHT22;25998;46.604;13.610;2022-07-21T05:39:12;21.30;97.30
40287;DHT22;25998;46.604;13.610;2022-07-21T05:42:23;21.40;97.30
40287;DHT22;25998;46.604;13.610;2022-07-21T05:45:34;21.60;97.50
40287;DHT22;25998;46.604;13.610;2022-07-21T05:48:44;21.80;97.60
40287;DHT22;25998;46.604;13.610;2022-07-21T05:51:55;21.80;97.40
40287;DHT22;25998;46.604;13.610;2022-07-21T05:55:07;21.90;97.50
40287;DHT22;25998;46.604;13.610;2022-07-21T05:58:18;22.00;97.20
40287;DHT22;25998;46.604;13.610;2022-07-21T06:01:30;22.40;97.40
40287;DHT22;25998;46.604;13.610;2022-07-21T06:04:41;22.80;96.00
40287;DHT22;25998;46.604;13.610;2022-07-21T06:07:52;23.50;95.80
40287;DHT22;25998;46.604;13.610;2022-07-21T06:11:03;24.10;94.90
40287;DHT22;25998;46.604;13.610;2022-07-21T06:14:14;24.50;94.60
40287;DHT22;25998;46.604;13.610;2022-07-21T06:17:25;24.60;94.50
40287;DHT22;25998;46.604;13.610;2022-07-21T06:20:35;24.70;94.20
40287;DHT22;25998;46.604;13.610;2022-07-21T06:23:46;24.80;94.50
40287;DHT22;25998;46.604;13.610;2022-07-21T06:26:57;25.00;94.10
40287;DHT22;25998;46.604;13.610;2022-07-21T06:30:09;25.30;94.40
40287;DHT22;25998;46.604;13.610;2022-07-21T06:33:20;25.80;93.90
40287;DHT22;25998;46.604;13.610;2022-07-21T06:36:31;26.30;93.70
40287;DHT22;25998;46.604;13.610;2022-07-21T06:39:41;26.70;93.10
40287;DHT22;25998;46.604;13.610;2022-07-21T06:42:52;26.80;93.10
40287;DHT22;25998;46.604;13.610;2022-07-21T06:46:03;26.80;93.50
40287;DHT22;25998;46.604;13.610;2022-07-21T06:49:15;26.80;93.20
40287;DHT22;25998;46.604;13.610;2022-07-21T06:52:25;27.10;93.30
40287;DHT22;25998;46.604;13.610;2022-07-21T06:55:36;27.50;93.10
40287;DHT22;25998;46.604;13.610;2022-07-21T06:58:48;27.70;92.50
40287;DHT22;25998;46.604;13.610;2022-07-21T07:01:59;27.70;91.20
40287;DHT22;25998;46.604;13.610;2022-07-21T07:05:09;27.80;91.70
40287;DHT22;25998;46.604;13.610;2022-07-21T07:08:20;28.10;91.10
40287;DHT22;25998;46.604;13.610;2022-07-21T07:11:31;28.00;91.30
40287;DHT22;25998;46.604;13.610;2022-07-21T07:14:44;28.20;91.40
40287;DHT22;25998;46.604;13.610;2022-07-21T07:17:56;28.30;91.40
40287;DHT22;25998;46.604;13.610;2022-07-21T07:21:06;28.50;91.90
40287;DHT22;25998;46.604;13.610;2022-07-21T07:24:17;28.70;92.40
40287;DHT22;25998;46.604;13.610;2022-07-21T07:27:28;28.90;91.20
40287;DHT22;25998;46.604;13.610;2022-07-21T07:30:39;29.20;91.10
40287;DHT22;25998;46.604;13.610;2022-07-21T07:33:50;29.10;92.10
40287;DHT22;25998;46.604;13.610;2022-07-21T07:37:01;29.40;91.40
40287;DHT22;25998;46.604;13.610;2022-07-21T07:40:16;29.80;91.20
40287;DHT22;25998;46.604;13.610;2022-07-21T07:43:31;29.50;91.00
40287;DHT22;25998;46.604;13.610;2022-07-21T07:46:41;29.30;92.10
40287;DHT22;25998;46.604;13.610;2022-07-21T07:49:52;29.70;90.00
40287;DHT22;25998;46.604;13.610;2022-07-21T07:53:03;29.90;90.90
40287;DHT22;25998;46.604;13.610;2022-07-21T07:56:14;30.10;88.10
40287;DHT22;25998;46.604;13.610;2022-07-21T07:59:25;30.00;84.90
40287;DHT22;25998;46.604;13.610;2022-07-21T08:02:36;29.90;87.20
40287;DHT22;25998;46.604;13.610;2022-07-21T08:05:47;30.10;85.60
40287;DHT22;25998;46.604;13.610;2022-07-21T08:08:58;30.20;87.60
40287;DHT22;25998;46.604;13.610;2022-07-21T08:12:09;30.00;85.40
40287;DHT22;25998;46.604;13.610;2022-07-21T08:15:20;30.00;84.60
40287;DHT22;25998;46.604;13.610;2022-07-21T08:18:31;30.30;86.60
40287;DHT22;25998;46.604;13.610;2022-07-21T08:21:42;30.30;85.50
40287;DHT22;25998;46.604;13.610;2022-07-21T08:24:52;30.30;83.10
40287;DHT22;25998;46.604;13.610;2022-07-21T08:28:04;30.40;82.10
40287;DHT22;25998;46.604;13.610;2022-07-21T08:31:15;30.50;81.80
40287;DHT22;25998;46.604;13.610;2022-07-21T08:34:26;30.40;81.10
40287;DHT22;25998;46.604;13.610;2022-07-21T08:37:39;30.40;83.00
40287;DHT22;25998;46.604;13.610;2022-07-21T08:40:50;30.80;82.70
40287;DHT22;25998;46.604;13.610;2022-07-21T08:44:01;31.10;81.00
40287;DHT22;25998;46.604;13.610;2022-07-21T08:47:12;31.20;80.60
40287;DHT22;25998;46.604;13.610;2022-07-21T08:50:25;31.40;83.00
40287;DHT22;25998;46.604;13.610;2022-07-21T08:53:36;31.40;81.40
40287;DHT22;25998;46.604;13.610;2022-07-21T08:56:48;31.30;79.40
40287;DHT22;25998;46.604;13.610;2022-07-21T08:59:59;31.20;79.40
40287;DHT22;25998;46.604;13.610;2022-07-21T09:03:21;31.10;78.50
40287;DHT22;25998;46.604;13.610;2022-07-21T09:06:49;31.00;82.30
40287;DHT22;25998;46.604;13.610;2022-07-21T09:10:02;31.40;78.40
40287;DHT22;25998;46.604;13.610;2022-07-21T09:13:13;31.90;79.00
40287;DHT22;25998;46.604;13.610;2022-07-21T09:16:39;32.20;77.80
40287;DHT22;25998;46.604;13.610;2022-07-21T09:19:50;32.00;78.60
40287;DHT22;25998;46.604;13.610;2022-07-21T09:23:22;31.90;79.70
40287;DHT22;25998;46.604;13.610;2022-07-21T09:26:33;32.20;79.10
40287;DHT22;25998;46.604;13.610;2022-07-21T09:29:47;32.40;80.00
40287;DHT22;25998;46.604;13.610;2022-07-21T09:32:58;32.50;78.80
40287;DHT22;25998;46.604;13.610;2022-07-21T09:36:16;32.20;78.40
40287;DHT22;25998;46.604;13.610;2022-07-21T09:39:45;32.00;77.50
40287;DHT22;25998;46.604;13.610;2022-07-21T09:42:56;31.70;78.90
40287;DHT22;25998;46.604;13.610;2022-07-21T09:46:11;32.20;80.20
40287;DHT22;25998;46.604;13.610;2022-07-21T09:49:31;32.60;77.40
40287;DHT22;25998;46.604;13.610;2022-07-21T09:52:45;32.80;77.20
40287;DHT22;25998;46.604;13.610;2022-07-21T09:55:56;32.80;77.10
40287;DHT22;25998;46.604;13.610;2022-07-21T09:59:11;32.80;78.10
40287;DHT22;25998;46.604;13.610;2022-07-21T10:02:28;32.80;76.90
40287;DHT22;25998;46.604;13.610;2022-07-21T10:05:39;32.90;77.30
40287;DHT22;25998;46.604;13.610;2022-07-21T10:08:50;32.80;78.70
40287;DHT22;25998;46.604;13.610;2022-07-21T10:12:02;32.90;76.30
40287;DHT22;25998;46.604;13.610;2022-07-21T10:15:16;32.80;79.20
40287;DHT22;25998;46.604;13.610;2022-07-21T10:18:28;33.10;76.80
40287;DHT22;25998;46.604;13.610;2022-07-21T10:22:02;33.30;77.60
40287;DHT22;25998;46.604;13.610;2022-07-21T10:25:15;33.30;76.10
40287;DHT22;25998;46.604;13.610;2022-07-21T10:28:26;33.30;79.30
40287;DHT22;25998;46.604;13.610;2022-07-21T10:31:42;33.30;75.90
40287;DHT22;25998;46.604;13.610;2022-07-21T10:34:55;33.30;76.40
40287;DHT22;25998;46.604;13.610;2022-07-21T10:38:06;33.30;75.60
40287;DHT22;25998;46.604;13.610;2022-07-21T10:41:45;33.20;74.20
40287;DHT22;25998;46.604;13.610;2022-07-21T10:44:56;33.30;76.00
40287;DHT22;25998;46.604;13.610;2022-07-21T10:51:39;33.60;78.70
40287;DHT22;25998;46.604;13.610;2022-07-21T10:55:15;33.60;75.70
40287;DHT22;25998;46.604;13.610;2022-07-21T10:58:39;33.80;76.60
40287;DHT22;25998;46.604;13.610;2022-07-21T11:01:50;33.90;78.00
40287;DHT22;25998;46.604;13.610;2022-07-21T11:05:05;34.20;77.70
40287;DHT22;25998;46.604;13.610;2022-07-21T11:08:18;34.10;75.00
40287;DHT22;25998;46.604;13.610;2022-07-21T11:11:33;34.40;77.40
40287;DHT22;25998;46.604;13.610;2022-07-21T11:14:45;34.30;74.10
40287;DHT22;25998;46.604;13.610;2022-07-21T11:17:56;34.50;74.30
40287;DHT22;25998;46.604;13.610;2022-07-21T11:21:16;34.80;75.80
40287;DHT22;25998;46.604;13.610;2022-07-21T11:24:27;34.60;75.00
40287;DHT22;25998;46.604;13.610;2022-07-21T11:27:38;34.40;73.60
40287;DHT22;25998;46.604;13.610;2022-07-21T11:31:07;34.50;74.30
40287;DHT22;25998;46.604;13.610;2022-07-21T11:34:19;34.70;74.20
40287;DHT22;25998;46.604;13.610;2022-07-21T11:40:42;34.30;74.30
40287;DHT22;25998;46.604;13.610;2022-07-21T11:43:53;34.10;75.40
40287;DHT22;25998;46.604;13.610;2022-07-21T11:47:05;34.20;73.40
40287;DHT22;25998;46.604;13.610;2022-07-21T11:50:16;34.60;75.30
40287;DHT22;25998;46.604;13.610;2022-07-21T11:53:27;34.50;74.90
40287;DHT22;25998;46.604;13.610;2022-07-21T11:56:41;34.50;76.10
40287;DHT22;25998;46.604;13.610;2022-07-21T11:59:54;34.60;73.50
40287;DHT22;25998;46.604;13.610;2022-07-21T12:03:06;34.50;75.10
40287;DHT22;25998;46.604;13.610;2022-07-21T12:06:18;34.40;75.60
40287;DHT22;25998;46.604;13.610;2022-07-21T12:09:29;34.70;74.50
40287;DHT22;25998;46.604;13.610;2022-07-21T12:12:43;35.00;75.50
40287;DHT22;25998;46.604;13.610;2022-07-21T12:15:54;35.40;74.50
40287;DHT22;25998;46.604;13.610;2022-07-21T12:19:09;35.10;71.80
40287;DHT22;25998;46.604;13.610;2022-07-21T12:22:33;34.90;76.70
40287;DHT22;25998;46.604;13.610;2022-07-21T12:25:44;35.00;76.00
40287;DHT22;25998;46.604;13.610;2022-07-21T12:28:55;34.80;74.10
40287;DHT22;25998;46.604;13.610;2022-07-21T12:32:07;34.80;75.10
40287;DHT22;25998;46.604;13.610;2022-07-21T12:35:30;34.90;73.40
40287;DHT22;25998;46.604;13.610;2022-07-21T12:38:46;35.10;73.40
40287;DHT22;25998;46.604;13.610;2022-07-21T12:41:57;35.20;72.70
40287;DHT22;25998;46.604;13.610;2022-07-21T12:45:17;35.30;73.40
40287;DHT22;25998;46.604;13.610;2022-07-21T12:48:33;35.40;74.40
40287;DHT22;25998;46.604;13.610;2022-07-21T12:51:56;35.50;73.10
40287;DHT22;25998;46.604;13.610;2022-07-21T12:55:08;35.40;75.00
40287;DHT22;25998;46.604;13.610;2022-07-21T12:58:19;35.30;73.90
40287;DHT22;25998;46.604;13.610;2022-07-21T13:01:31;35.40;73.50
40287;DHT22;25998;46.604;13.610;2022-07-21T13:04:43;35.70;74.50
40287;DHT22;25998;46.604;13.610;2022-07-21T13:07:54;35.50;72.50
40287;DHT22;25998;46.604;13.610;2022-07-21T13:11:07;35.50;72.10
40287;DHT22;25998;46.604;13.610;2022-07-21T13:14:18;35.50;74.20
40287;DHT22;25998;46.604;13.610;2022-07-21T13:17:29;35.70;74.50
40287;DHT22;25998;46.604;13.610;2022-07-21T13:20:42;35.60;73.40
40287;DHT22;25998;46.604;13.610;2022-07-21T13:23:53;35.60;72.40
40287;DHT22;25998;46.604;13.610;2022-07-21T13:27:04;35.70;73.40
40287;DHT22;25998;46.604;13.610;2022-07-21T13:30:18;35.80;72.80
40287;DHT22;25998;46.604;13.610;2022-07-21T13:33:29;35.60;72.40
40287;DHT22;25998;46.604;13.610;2022-07-21T13:36:40;35.60;71.70
40287;DHT22;25998;46.604;13.610;2022-07-21T13:39:53;35.70;74.20
40287;DHT22;25998;46.604;13.610;2022-07-21T13:43:05;35.80;72.80
40287;DHT22;25998;46.604;13.610;2022-07-21T13:46:16;35.60;74.20
40287;DHT22;25998;46.604;13.610;2022-07-21T13:49:27;35.60;73.30
40287;DHT22;25998;46.604;13.610;2022-07-21T13:52:38;35.80;73.80
40287;DHT22;25998;46.604;13.610;2022-07-21T13:55:51;35.80;73.20
40287;DHT22;25998;46.604;13.610;2022-07-21T13:59:04;35.50;72.80
40287;DHT22;25998;46.604;13.610;2022-07-21T14:02:15;35.40;73.00
40287;DHT22;25998;46.604;13.610;2022-07-21T14:05:28;35.30;74.90
40287;DHT22;25998;46.604;13.610;2022-07-21T14:08:40;35.50;73.90
40287;DHT22;25998;46.604;13.610;2022-07-21T14:11:51;35.40;74.50
40287;DHT22;25998;46.604;13.610;2022-07-21T14:15:03;35.50;74.20
40287;DHT22;25998;46.604;13.610;2022-07-21T14:18:14;35.60;72.60
40287;DHT22;25998;46.604;13.610;2022-07-21T14:21:25;35.60;72.50
40287;DHT22;25998;46.604;13.610;2022-07-21T14:24:36;35.40;74.90
40287;DHT22;25998;46.604;13.610;2022-07-21T14:28:05;35.30;74.10
40287;DHT22;25998;46.604;13.610;2022-07-21T14:31:16;35.30;73.00
40287;DHT22;25998;46.604;13.610;2022-07-21T14:34:27;35.20;73.10
40287;DHT22;25998;46.604;13.610;2022-07-21T14:37:38;35.20;72.10
40287;DHT22;25998;46.604;13.610;2022-07-21T14:40:52;35.30;73.20
40287;DHT22;25998;46.604;13.610;2022-07-21T14:44:04;35.30;74.00
40287;DHT22;25998;46.604;13.610;2022-07-21T14:47:15;35.10;72.50
40287;DHT22;25998;46.604;13.610;2022-07-21T14:50:27;34.70;72.00
40287;DHT22;25998;46.604;13.610;2022-07-21T14:53:38;34.50;72.50
40287;DHT22;25998;46.604;13.610;2022-07-21T14:56:50;34.40;72.70
40287;DHT22;25998;46.604;13.610;2022-07-21T15:00:03;34.30;73.50
40287;DHT22;25998;46.604;13.610;2022-07-21T15:03:15;34.10;72.70
40287;DHT22;25998;46.604;13.610;2022-07-21T15:06:26;34.20;72.80
40287;DHT22;25998;46.604;13.610;2022-07-21T15:09:40;34.40;74.10
40287;DHT22;25998;46.604;13.610;2022-07-21T15:12:50;34.70;72.40
40287;DHT22;25998;46.604;13.610;2022-07-21T15:16:01;34.80;73.60
40287;DHT22;25998;46.604;13.610;2022-07-21T15:19:12;34.90;74.30
40287;DHT22;25998;46.604;13.610;2022-07-21T15:22:23;34.70;72.30
40287;DHT22;25998;46.604;13.610;2022-07-21T15:25:35;34.60;71.10
40287;DHT22;25998;46.604;13.610;2022-07-21T15:28:46;34.30;73.40
40287;DHT22;25998;46.604;13.610;2022-07-21T15:31:57;34.40;75.10
40287;DHT22;25998;46.604;13.610;2022-07-21T15:35:09;34.40;74.30
40287;DHT22;25998;46.604;13.610;2022-07-21T15:38:21;34.30;75.50
40287;DHT22;25998;46.604;13.610;2022-07-21T15:41:35;34.20;81.40
40287;DHT22;25998;46.604;13.610;2022-07-21T15:44:46;34.20;77.60
40287;DHT22;25998;46.604;13.610;2022-07-21T15:47:58;34.40;71.80
40287;DHT22;25998;46.604;13.610;2022-07-21T15:51:10;34.60;74.30
40287;DHT22;25998;46.604;13.610;2022-07-21T15:54:21;34.70;72.90
40287;DHT22;25998;46.604;13.610;2022-07-21T15:57:32;34.40;71.70
40287;DHT22;25998;46.604;13.610;2022-07-21T16:00:46;34.40;73.70
40287;DHT22;25998;46.604;13.610;2022-07-21T16:03:57;34.20;71.00
40287;DHT22;25998;46.604;13.610;2022-07-21T16:07:08;34.30;73.80
40287;DHT22;25998;46.604;13.610;2022-07-21T16:10:22;34.00;78.50
40287;DHT22;25998;46.604;13.610;2022-07-21T16:13:33;34.00;74.20
40287;DHT22;25998;46.604;13.610;2022-07-21T16:16:44;34.10;74.90
40287;DHT22;25998;46.604;13.610;2022-07-21T16:19:55;34.10;74.60
40287;DHT22;25998;46.604;13.610;2022-07-21T16:23:06;34.00;76.70
40287;DHT22;25998;46.604;13.610;2022-07-21T16:26:17;34.00;75.80
40287;DHT22;25998;46.604;13.610;2022-07-21T16:29:27;34.00;74.90
40287;DHT22;25998;46.604;13.610;2022-07-21T16:32:39;34.10;74.80
40287;DHT22;25998;46.604;13.610;2022-07-21T16:35:50;34.00;72.10
40287;DHT22;25998;46.604;13.610;2022-07-21T16:39:01;33.70;71.20
40287;DHT22;25998;46.604;13.610;2022-07-21T16:42:13;33.70;71.90
40287;DHT22;25998;46.604;13.610;2022-07-21T16:45:23;33.70;71.00
40287;DHT22;25998;46.604;13.610;2022-07-21T16:48:35;33.60;71.40
40287;DHT22;25998;46.604;13.610;2022-07-21T16:51:46;33.50;71.40
40287;DHT22;25998;46.604;13.610;2022-07-21T16:55:01;33.40;71.90
40287;DHT22;25998;46.604;13.610;2022-07-21T16:58:12;33.30;73.50
40287;DHT22;25998;46.604;13.610;2022-07-21T17:01:23;33.20;75.20
40287;DHT22;25998;46.604;13.610;2022-07-21T17:04:34;33.20;79.50
40287;DHT22;25998;46.604;13.610;2022-07-21T17:07:45;32.60;81.40
40287;DHT22;25998;46.604;13.610;2022-07-21T17:10:56;32.20;81.60
40287;DHT22;25998;46.604;13.610;2022-07-21T17:14:07;31.70;84.00
40287;DHT22;25998;46.604;13.610;2022-07-21T17:17:21;31.50;84.30
40287;DHT22;25998;46.604;13.610;2022-07-21T17:20:33;31.60;84.50
40287;DHT22;25998;46.604;13.610;2022-07-21T17:23:43;31.60;85.30
40287;DHT22;25998;46.604;13.610;2022-07-21T17:26:54;31.90;85.10
40287;DHT22;25998;46.604;13.610;2022-07-21T17:30:06;31.80;86.10
40287;DHT22;25998;46.604;13.610;2022-07-21T17:33:21;31.60;86.20
40287;DHT22;25998;46.604;13.610;2022-07-21T17:36:32;31.60;84.90
40287;DHT22;25998;46.604;13.610;2022-07-21T17:39:42;31.40;86.20
40287;DHT22;25998;46.604;13.610;2022-07-21T17:42:53;31.30;87.30
40287;DHT22;25998;46.604;13.610;2022-07-21T17:46:04;31.10;87.90
40287;DHT22;25998;46.604;13.610;2022-07-21T17:49:16;31.10;88.00
40287;DHT22;25998;46.604;13.610;2022-07-21T17:52:27;31.10;87.80
40287;DHT22;25998;46.604;13.610;2022-07-21T17:55:38;30.70;87.40
40287;DHT22;25998;46.604;13.610;2022-07-21T17:58:49;30.40;85.90
40287;DHT22;25998;46.604;13.610;2022-07-21T18:01:59;30.40;82.80
40287;DHT22;25998;46.604;13.610;2022-07-21T18:05:10;30.30;87.00
40287;DHT22;25998;46.604;13.610;2022-07-21T18:08:21;30.40;86.70
40287;DHT22;25998;46.604;13.610;2022-07-21T18:11:32;30.30;85.40
40287;DHT22;25998;46.604;13.610;2022-07-21T18:14:43;30.10;83.10
40287;DHT22;25998;46.604;13.610;2022-07-21T18:17:54;30.10;83.60
40287;DHT22;25998;46.604;13.610;2022-07-21T18:21:06;30.10;79.60
40287;DHT22;25998;46.604;13.610;2022-07-21T18:24:16;30.10;84.10
40287;DHT22;25998;46.604;13.610;2022-07-21T18:27:27;30.10;81.80
40287;DHT22;25998;46.604;13.610;2022-07-21T18:30:42;30.10;82.00
40287;DHT22;25998;46.604;13.610;2022-07-21T18:33:53;30.00;81.70
40287;DHT22;25998;46.604;13.610;2022-07-21T18:37:04;29.80;80.70
40287;DHT22;25998;46.604;13.610;2022-07-21T18:40:15;29.70;79.00
40287;DHT22;25998;46.604;13.610;2022-07-21T18:43:26;29.60;77.60
40287;DHT22;25998;46.604;13.610;2022-07-21T18:46:37;29.50;78.40
40287;DHT22;25998;46.604;13.610;2022-07-21T18:49:48;29.50;78.90
40287;DHT22;25998;46.604;13.610;2022-07-21T18:52:59;29.30;79.10
40287;DHT22;25998;46.604;13.610;2022-07-21T18:56:10;29.20;79.70
40287;DHT22;25998;46.604;13.610;2022-07-21T18:59:21;29.00;80.40
40287;DHT22;25998;46.604;13.610;2022-07-21T19:02:32;29.00;81.60
40287;DHT22;25998;46.604;13.610;2022-07-21T19:05:43;29.00;81.60
40287;DHT22;25998;46.604;13.610;2022-07-21T19:08:54;29.00;82.30
40287;DHT22;25998;46.604;13.610;2022-07-21T19:12:06;29.00;81.90
40287;DHT22;25998;46.604;13.610;2022-07-21T19:15:17;29.10;81.50
40287;DHT22;25998;46.604;13.610;2022-07-21T19:18:28;28.90;82.30
40287;DHT22;25998;46.604;13.610;2022-07-21T19:21:39;28.70;80.40
40287;DHT22;25998;46.604;13.610;2022-07-21T19:24:50;28.70;81.50
40287;DHT22;25998;46.604;13.610;2022-07-21T19:28:02;28.60;83.00
40287;DHT22;25998;46.604;13.610;2022-07-21T19:31:14;28.60;80.30
40287;DHT22;25998;46.604;13.610;2022-07-21T19:34:28;28.30;82.30
40287;DHT22;25998;46.604;13.610;2022-07-21T19:37:39;28.20;82.60
40287;DHT22;25998;46.604;13.610;2022-07-21T19:40:50;28.20;83.00
40287;DHT22;25998;46.604;13.610;2022-07-21T19:44:02;28.10;82.50
40287;DHT22;25998;46.604;13.610;2022-07-21T19:47:13;28.10;82.80
40287;DHT22;25998;46.604;13.610;2022-07-21T19:50:24;28.10;82.90
40287;DHT22;25998;46.604;13.610;2022-07-21T19:53:35;28.20;82.70
40287;DHT22;25998;46.604;13.610;2022-07-21T19:56:45;28.10;83.20
40287;DHT22;25998;46.604;13.610;2022-07-21T19:59:57;28.00;84.10